Taylor, Utah
Current Conditions -  °F | °C
As of 1:53 AM on Sunday 23 Nov 2014 (Local Time) from KOGD Reporting Station
Overcast Overcast  
Wind Chill: 27°   Ceiling: 3500
Heat Index: 33°   Visibility: 9mi
Dew Point: 33°   Wind: 7mph
Humidity: 100%   Direction: 230°SW
Pressure: 29.97"   Gusts: NA
Location:  41.2221°N, 112.033°W
Report Text: KOGD 230853Z AUTO 23006KT 9SM BKN035 OVC045 01/01 A2997 RMK AO2 SNE07 SLP143 P0000 60002 T00060006 53016 TSNO
Loading
Personal Weather Stations






























Interactive Weather Map New forecast layout! Learn more

10-Day Weather Forecast

Advertisements
Track Severe Weather on mobile